Time;durP1;ratioP1;P1;durP2;ratioP2;P2;SDS_P1;SDS_P2;PMS_P1;PMS_P2;Temp;Humidity;BMP_temperature;BMP_pressure;BME280_temperature;BME280_humidity;BME280_pressure;Samples;Min_cycle;Max_cycle;Signal;HPM_P1;HPM_P2
2021/01/08 00:02:08;;;;;;;9.57;8.57;;;;;;;;;;4829455;29;20201;-91
2021/01/08 00:04:35;;;;;;;9.10;7.50;;;;;;;;;;4829939;29;20545;-91
2021/01/08 00:07:02;;;;;;;8.90;7.05;;;;;;;;;;4829085;29;20205;-91
2021/01/08 00:09:30;;;;;;;7.35;6.65;;;;;;;;;;4829247;29;20281;-90
2021/01/08 00:11:57;;;;;;;7.72;6.90;;;;;;;;;;4828831;29;20218;-90
2021/01/08 00:14:24;;;;;;;8.15;7.05;;;;;;;;;;4829145;29;20194;-91
2021/01/08 00:16:51;;;;;;;7.38;6.57;;;;;;;;;;4828858;29;20335;-90
2021/01/08 00:19:18;;;;;;;7.82;7.03;;;;;;;;;;4829545;29;20458;-91
2021/01/08 00:21:45;;;;;;;7.85;6.53;;;;;;;;;;4829534;29;20202;-91
2021/01/08 00:24:12;;;;;;;6.53;5.70;;;;;;;;;;4829112;29;20190;-91
2021/01/08 00:26:42;;;;;;;6.15;5.55;;;;;;;;;;4829314;29;20196;-91
2021/01/08 00:29:10;;;;;;;6.78;6.03;;;;;;;;;;4828988;29;20194;-91
2021/01/08 00:31:38;;;;;;;7.93;6.55;;;;;;;;;;4829012;29;20229;-91
2021/01/08 00:34:07;;;;;;;7.00;5.72;;;;;;;;;;4832356;29;20190;-91
2021/01/08 00:36:34;;;;;;;6.72;6.13;;;;;;;;;;4831934;29;20201;-92
2021/01/08 00:39:02;;;;;;;6.55;5.88;;;;;;;;;;4831917;29;20191;-91
2021/01/08 00:41:30;;;;;;;7.03;5.55;;;;;;;;;;4832193;29;20250;-91
2021/01/08 00:43:58;;;;;;;6.13;5.15;;;;;;;;;;4832112;29;20198;-90
2021/01/08 00:46:33;;;;;;;3.15;2.88;;;;;;;;;;4832043;29;20197;-91
2021/01/08 00:49:01;;;;;;;3.15;2.85;;;;;;;;;;4832045;29;20193;-90
2021/01/08 00:51:28;;;;;;;3.30;3.00;;;;;;;;;;4832416;29;20234;-91
2021/01/08 00:53:55;;;;;;;2.63;2.42;;;;;;;;;;4831760;29;20244;-90
2021/01/08 00:56:23;;;;;;;2.63;2.42;;;;;;;;;;4832694;29;20206;-90
2021/01/08 00:58:50;;;;;;;2.25;2.13;;;;;;;;;;4832291;29;20505;-91
2021/01/08 01:01:18;;;;;;;2.38;2.17;;;;;;;;;;4831946;29;20190;-91
2021/01/08 01:03:45;;;;;;;3.13;2.92;;;;;;;;;;4831558;29;20585;-91
2021/01/08 01:06:12;;;;;;;5.88;4.97;;;;;;;;;;4831978;29;20496;-91
2021/01/08 01:08:39;;;;;;;9.23;6.53;;;;;;;;;;4831703;29;20204;-90
2021/01/08 01:11:07;;;;;;;7.60;6.75;;;;;;;;;;4832260;29;20229;-90
2021/01/08 01:13:34;;;;;;;8.52;7.57;;;;;;;;;;4831726;29;20201;-91
2021/01/08 01:16:01;;;;;;;9.32;6.95;;;;;;;;;;4831400;29;20273;-90
2021/01/08 01:18:28;;;;;;;10.50;7.85;;;;;;;;;;4831554;29;20205;-89
2021/01/08 01:20:55;;;;;;;9.68;7.47;;;;;;;;;;4831518;29;20232;-89
2021/01/08 01:23:22;;;;;;;8.00;6.88;;;;;;;;;;4832036;29;20226;-90
2021/01/08 01:25:49;;;;;;;8.43;7.45;;;;;;;;;;4831793;29;20284;-89
2021/01/08 01:28:16;;;;;;;9.52;7.72;;;;;;;;;;4831579;29;20220;-90
2021/01/08 01:30:43;;;;;;;9.85;7.70;;;;;;;;;;4831315;29;20470;-89
2021/01/08 01:33:10;;;;;;;7.43;6.60;;;;;;;;;;4830996;29;20185;-89
2021/01/08 01:35:38;;;;;;;8.13;7.32;;;;;;;;;;4831651;29;20459;-90
2021/01/08 01:38:05;;;;;;;8.93;7.15;;;;;;;;;;4831774;29;20300;-90
2021/01/08 01:40:32;;;;;;;8.57;7.72;;;;;;;;;;4831999;29;20212;-89
2021/01/08 01:42:59;;;;;;;7.75;6.50;;;;;;;;;;4830665;29;20197;-90
2021/01/08 01:45:26;;;;;;;7.05;6.22;;;;;;;;;;4830841;29;20263;-90
2021/01/08 01:47:53;;;;;;;8.73;7.10;;;;;;;;;;4831085;29;20198;-89
2021/01/08 01:50:20;;;;;;;10.15;7.28;;;;;;;;;;4830683;29;20601;-89
2021/01/08 01:52:48;;;;;;;9.00;6.72;;;;;;;;;;4830814;29;20241;-90
2021/01/08 01:55:15;;;;;;;7.47;6.65;;;;;;;;;;4830967;29;20472;-89
2021/01/08 01:57:42;;;;;;;8.13;7.32;;;;;;;;;;4830472;29;20212;-90
2021/01/08 02:00:10;;;;;;;7.45;6.75;;;;;;;;;;4830866;29;20201;-89
2021/01/08 02:02:41;;;;;;;7.75;6.95;;;;;;;;;;4830954;29;20198;-90
2021/01/08 02:05:10;;;;;;;6.72;5.97;;;;;;;;;;4831531;29;20201;-88
2021/01/08 02:07:46;;;;;;;9.27;8.38;;;;;;;;;;4831217;29;20210;-90
2021/01/08 02:10:13;;;;;;;7.22;6.50;;;;;;;;;;4830834;29;20190;-89
2021/01/08 02:12:41;;;;;;;7.65;6.85;;;;;;;;;;4831316;29;20230;-90
2021/01/08 02:15:10;;;;;;;8.15;7.35;;;;;;;;;;4830746;29;20255;-89
2021/01/08 02:17:37;;;;;;;8.02;7.22;;;;;;;;;;4830656;29;20254;-90
2021/01/08 02:20:06;;;;;;;7.93;7.13;;;;;;;;;;4830569;29;20614;-89
2021/01/08 02:22:42;;;;;;;8.90;7.13;;;;;;;;;;4831369;29;20202;-89
2021/01/08 02:25:14;;;;;;;9.18;6.72;;;;;;;;;;4830605;29;20277;-90
2021/01/08 02:27:42;;;;;;;8.13;7.10;;;;;;;;;;4830881;29;20187;-90
2021/01/08 02:30:11;;;;;;;8.23;7.35;;;;;;;;;;4830468;29;20537;-91
2021/01/08 02:32:38;;;;;;;7.65;6.85;;;;;;;;;;4830333;29;20273;-89
2021/01/08 02:35:07;;;;;;;8.20;7.38;;;;;;;;;;4830912;29;20206;-90
2021/01/08 02:37:42;;;;;;;8.50;7.60;;;;;;;;;;4831091;29;20465;-90
2021/01/08 02:40:13;;;;;;;8.15;7.20;;;;;;;;;;4785271;29;20221;-90
2021/01/08 02:42:41;;;;;;;6.97;6.28;;;;;;;;;;4830111;29;20273;-89
2021/01/08 02:45:09;;;;;;;8.05;7.35;;;;;;;;;;4784692;29;20202;-89
2021/01/08 02:47:36;;;;;;;8.05;6.53;;;;;;;;;;4829785;29;20210;-89
2021/01/08 02:50:04;;;;;;;7.97;7.18;;;;;;;;;;4830904;29;20244;-89
2021/01/08 02:52:32;;;;;;;8.25;7.25;;;;;;;;;;4829895;29;20234;-90
2021/01/08 02:55:01;;;;;;;8.18;7.38;;;;;;;;;;4829448;29;20264;-89
2021/01/08 02:57:29;;;;;;;8.68;7.05;;;;;;;;;;4830200;29;20231;-89
2021/01/08 02:59:57;;;;;;;7.50;6.60;;;;;;;;;;4830099;29;20204;-90
2021/01/08 03:02:25;;;;;;;8.55;7.13;;;;;;;;;;4829865;29;20460;-90
2021/01/08 03:04:52;;;;;;;8.52;7.68;;;;;;;;;;4830581;29;20201;-89
2021/01/08 03:07:20;;;;;;;8.52;7.57;;;;;;;;;;4830236;29;20197;-89
2021/01/08 03:09:48;;;;;;;7.68;6.95;;;;;;;;;;4830198;29;20204;-91
2021/01/08 03:12:15;;;;;;;7.93;7.15;;;;;;;;;;4830454;29;20612;-90
2021/01/08 03:14:44;;;;;;;8.27;7.47;;;;;;;;;;4830757;29;20235;-90
2021/01/08 03:17:11;;;;;;;8.70;7.75;;;;;;;;;;4830401;29;20205;-91
2021/01/08 03:19:39;;;;;;;7.15;6.40;;;;;;;;;;4830374;29;20229;-90
2021/01/08 03:22:06;;;;;;;8.18;7.38;;;;;;;;;;4829865;29;20197;-90
2021/01/08 03:24:33;;;;;;;8.43;7.53;;;;;;;;;;4830382;29;20197;-90
2021/01/08 03:27:00;;;;;;;7.20;6.55;;;;;;;;;;4829565;29;20222;-90
2021/01/08 03:29:27;;;;;;;9.00;7.32;;;;;;;;;;4829740;29;20193;-90
2021/01/08 03:31:55;;;;;;;7.22;6.53;;;;;;;;;;4829664;29;20214;-91
2021/01/08 03:34:22;;;;;;;7.07;6.38;;;;;;;;;;4829777;29;20206;-90
2021/01/08 03:36:49;;;;;;;7.20;6.47;;;;;;;;;;4829618;29;20196;-91
2021/01/08 03:39:16;;;;;;;7.60;6.80;;;;;;;;;;4829637;29;20280;-90
2021/01/08 03:41:43;;;;;;;6.85;6.25;;;;;;;;;;4829290;29;20194;-90
2021/01/08 03:44:10;;;;;;;8.15;7.32;;;;;;;;;;4829560;29;20198;-90
2021/01/08 03:46:37;;;;;;;8.05;7.20;;;;;;;;;;4783700;29;20198;-90
2021/01/08 03:49:06;;;;;;;7.65;6.95;;;;;;;;;;4829243;29;20285;-90
2021/01/08 03:51:33;;;;;;;7.32;6.63;;;;;;;;;;4829543;29;20295;-90
2021/01/08 03:54:00;;;;;;;6.78;6.03;;;;;;;;;;4829301;29;20237;-90
2021/01/08 03:56:27;;;;;;;7.57;6.88;;;;;;;;;;4829407;29;20213;-91
2021/01/08 03:58:54;;;;;;;6.60;6.00;;;;;;;;;;4829781;29;20206;-91
2021/01/08 04:01:21;;;;;;;7.45;6.78;;;;;;;;;;4829345;29;20202;-92
2021/01/08 04:03:48;;;;;;;6.35;5.75;;;;;;;;;;4829902;29;20205;-91
2021/01/08 04:06:16;;;;;;;7.93;7.13;;;;;;;;;;4829734;29;20219;-89
2021/01/08 04:08:43;;;;;;;6.47;5.82;;;;;;;;;;4833169;29;20206;-91
2021/01/08 04:11:10;;;;;;;7.68;6.78;;;;;;;;;;4832572;29;20571;-91
2021/01/08 04:13:37;;;;;;;6.47;5.88;;;;;;;;;;4833088;29;20466;-90
2021/01/08 04:16:05;;;;;;;4.72;4.30;;;;;;;;;;4832832;29;20225;-90
2021/01/08 04:18:32;;;;;;;5.47;4.60;;;;;;;;;;4832597;29;20231;-89
2021/01/08 04:20:59;;;;;;;4.70;4.05;;;;;;;;;;4832466;29;20241;-90
2021/01/08 04:23:26;;;;;;;3.58;3.28;;;;;;;;;;4832273;29;20197;-91
2021/01/08 04:25:53;;;;;;;5.78;5.18;;;;;;;;;;4832254;29;20193;-89
2021/01/08 04:28:20;;;;;;;6.78;5.50;;;;;;;;;;4832251;29;20198;-91
2021/01/08 04:30:47;;;;;;;5.88;5.28;;;;;;;;;;4832433;29;20208;-91
2021/01/08 04:33:14;;;;;;;3.50;3.20;;;;;;;;;;4832257;29;20214;-90
2021/01/08 04:35:41;;;;;;;3.83;3.53;;;;;;;;;;4832435;29;20584;-91
2021/01/08 04:38:08;;;;;;;3.53;3.22;;;;;;;;;;4832221;29;20194;-91
2021/01/08 04:40:36;;;;;;;4.65;3.25;;;;;;;;;;4832216;29;20197;-92
2021/01/08 04:43:04;;;;;;;3.38;3.08;;;;;;;;;;4831984;29;20281;-90
2021/01/08 04:45:31;;;;;;;4.30;3.90;;;;;;;;;;4832520;29;20475;-91
2021/01/08 04:47:59;;;;;;;4.47;4.10;;;;;;;;;;4832111;29;20194;-90
2021/01/08 04:50:26;;;;;;;5.15;4.65;;;;;;;;;;4831735;29;20304;-90
2021/01/08 04:52:54;;;;;;;4.47;4.07;;;;;;;;;;4831566;29;20230;-91
2021/01/08 04:55:21;;;;;;;4.78;4.38;;;;;;;;;;4831964;29;20197;-91
2021/01/08 04:57:51;;;;;;;4.68;4.28;;;;;;;;;;4831769;29;20527;-89
2021/01/08 05:00:20;;;;;;;4.80;4.40;;;;;;;;;;4831992;29;20472;-91
2021/01/08 05:02:47;;;;;;;4.10;3.80;;;;;;;;;;4831718;29;20200;-90
2021/01/08 05:05:14;;;;;;;4.70;4.30;;;;;;;;;;4832715;29;20194;-90
2021/01/08 05:07:41;;;;;;;4.60;4.20;;;;;;;;;;4832807;29;20212;-90
2021/01/08 05:10:10;;;;;;;3.90;3.50;;;;;;;;;;4832404;29;20202;-90
2021/01/08 05:12:41;;;;;;;3.97;3.67;;;;;;;;;;4831294;29;20259;-90
2021/01/08 05:15:16;;;;;;;5.18;4.68;;;;;;;;;;4831781;29;20520;-89
2021/01/08 05:17:44;;;;;;;4.47;4.07;;;;;;;;;;4831602;29;20208;-89
2021/01/08 05:20:12;;;;;;;4.93;4.43;;;;;;;;;;4831635;29;20236;-90
2021/01/08 05:22:40;;;;;;;4.22;3.83;;;;;;;;;;4831572;29;20205;-91
2021/01/08 05:25:09;;;;;;;4.30;3.90;;;;;;;;;;4831645;29;20216;-91
2021/01/08 05:27:37;;;;;;;6.53;4.10;;;;;;;;;;4831311;29;20245;-90
2021/01/08 05:30:16;;;;;;;5.97;3.95;;;;;;;;;;4831856;29;20209;-90
2021/01/08 05:32:43;;;;;;;5.53;4.22;;;;;;;;;;4831371;29;20226;-90
2021/01/08 05:35:15;;;;;;;4.28;3.88;;;;;;;;;;4831247;29;20190;-90
2021/01/08 05:37:45;;;;;;;4.25;3.42;;;;;;;;;;4831950;29;20214;-90
2021/01/08 05:40:13;;;;;;;4.28;3.88;;;;;;;;;;4831269;29;20194;-89
2021/01/08 05:43:02;;;;;;;3.72;3.40;;;;;;;;;;4831215;29;20264;-92
2021/01/08 05:45:33;;;;;;;3.33;3.03;;;;;;;;;;4827932;29;20214;-95
2021/01/08 05:48:02;;;;;;;4.45;3.00;;;;;;;;;;4831858;29;20289;-94
2021/01/08 05:50:30;;;;;;;3.67;3.38;;;;;;;;;;4831456;29;20548;-94
2021/01/08 05:53:03;;;;;;;3.92;3.35;;;;;;;;;;4831131;29;20265;-94
2021/01/08 05:55:35;;;;;;;3.85;3.55;;;;;;;;;;4831450;29;20213;-93
2021/01/08 05:58:18;;;;;;;4.22;3.60;;;;;;;;;;4831144;29;20210;-95
2021/01/08 06:00:58;;;;;;;2.67;2.47;;;;;;;;;;4831432;29;20210;-93
2021/01/08 06:03:27;;;;;;;3.50;2.92;;;;;;;;;;4831611;29;20214;-93
2021/01/08 06:05:55;;;;;;;3.28;2.97;;;;;;;;;;4831652;29;20202;-93
2021/01/08 06:08:24;;;;;;;2.88;2.65;;;;;;;;;;4831126;29;20297;-93
2021/01/08 06:10:54;;;;;;;2.78;2.58;;;;;;;;;;4831925;29;20202;-93
2021/01/08 06:13:27;;;;;;;3.38;3.08;;;;;;;;;;4831174;29;20225;-91
2021/01/08 06:15:56;;;;;;;3.85;3.42;;;;;;;;;;4831780;29;20206;-93
2021/01/08 06:18:27;;;;;;;2.58;2.38;;;;;;;;;;4830715;29;20205;-92
2021/01/08 06:20:55;;;;;;;2.90;2.60;;;;;;;;;;4830738;29;20230;-92
2021/01/08 06:23:39;;;;;;;3.67;2.83;;;;;;;;;;4830033;29;20216;-93
2021/01/08 06:26:12;;;;;;;3.40;3.10;;;;;;;;;;4831002;29;20198;-94
2021/01/08 06:28:49;;;;;;;3.17;2.90;;;;;;;;;;4830800;29;20226;-94
2021/01/08 06:31:31;;;;;;;2.92;2.70;;;;;;;;;;4829548;29;20216;-94
2021/01/08 06:34:00;;;;;;;3.10;2.80;;;;;;;;;;4830945;29;20294;-93
2021/01/08 06:36:29;;;;;;;2.60;2.35;;;;;;;;;;4831232;29;20202;-94
2021/01/08 06:39:02;;;;;;;2.70;2.50;;;;;;;;;;4836968;29;20237;-94
2021/01/08 06:41:29;;;;;;;2.78;2.58;;;;;;;;;;4830949;29;20429;-94
2021/01/08 06:44:01;;;;;;;3.13;2.63;;;;;;;;;;4830973;29;20206;-94
2021/01/08 06:46:34;;;;;;;2.70;2.50;;;;;;;;;;4830891;29;20202;-93
2021/01/08 06:49:04;;;;;;;3.53;3.22;;;;;;;;;;4831288;29;20206;-92
2021/01/08 06:51:33;;;;;;;4.18;3.78;;;;;;;;;;4831303;29;20226;-93
2021/01/08 06:54:04;;;;;;;4.55;3.72;;;;;;;;;;4829737;29;20519;-94
2021/01/08 06:56:36;;;;;;;3.60;3.30;;;;;;;;;;4830645;29;20272;-94
2021/01/08 06:59:09;;;;;;;6.00;4.07;;;;;;;;;;4830571;29;20290;-95
2021/01/08 07:01:55;;;;;;;4.20;3.75;;;;;;;;;;4831166;29;20202;-94
2021/01/08 07:04:25;;;;;;;4.50;4.10;;;;;;;;;;4830464;29;20213;-94
2021/01/08 07:06:57;;;;;;;4.38;4.03;;;;;;;;;;4830211;29;20599;-93
2021/01/08 07:09:34;;;;;;;4.75;4.25;;;;;;;;;;4830276;29;20209;-93
2021/01/08 07:12:12;;;;;;;5.32;4.82;;;;;;;;;;4830154;29;20304;-93
2021/01/08 07:14:42;;;;;;;4.40;3.70;;;;;;;;;;4830717;29;20249;-94
2021/01/08 07:17:13;;;;;;;6.63;4.32;;;;;;;;;;4830578;29;20216;-95
2021/01/08 07:19:44;;;;;;;4.80;4.30;;;;;;;;;;4829740;29;20630;-94
2021/01/08 07:22:18;;;;;;;4.82;4.32;;;;;;;;;;4830553;29;20230;-95
2021/01/08 07:24:47;;;;;;;4.32;3.92;;;;;;;;;;4830709;29;20474;-93
2021/01/08 07:27:28;;;;;;;3.95;3.55;;;;;;;;;;4830228;29;20256;-94
2021/01/08 07:29:58;;;;;;;4.45;4.03;;;;;;;;;;4829985;29;20229;-94
2021/01/08 07:32:36;;;;;;;4.05;3.70;;;;;;;;;;4830576;29;20293;-94
2021/01/08 07:35:22;;;;;;;4.43;3.90;;;;;;;;;;4829811;29;20241;-92
2021/01/08 07:38:01;;;;;;;4.22;3.83;;;;;;;;;;4829845;29;20609;-95
2021/01/08 07:40:31;;;;;;;4.13;3.72;;;;;;;;;;4830038;29;20205;-94
2021/01/08 07:43:00;;;;;;;5.80;3.60;;;;;;;;;;4829749;29;20229;-94
2021/01/08 07:45:50;;;;;;;4.47;4.05;;;;;;;;;;4829962;29;20258;-94
2021/01/08 07:48:23;;;;;;;3.75;3.45;;;;;;;;;;4829814;29;20561;-94
2021/01/08 07:50:58;;;;;;;4.72;4.22;;;;;;;;;;4829445;29;20225;-95
2021/01/08 07:53:50;;;;;;;4.57;4.15;;;;;;;;;;4829883;29;20534;-93
2021/01/08 07:56:20;;;;;;;4.20;3.80;;;;;;;;;;4830131;29;20216;-95
2021/01/08 07:58:58;;;;;;;4.80;4.35;;;;;;;;;;4829725;29;20218;-94
2021/01/08 08:01:25;;;;;;;6.70;5.55;;;;;;;;;;4829632;29;20213;-93
2021/01/08 08:04:00;;;;;;;4.38;3.90;;;;;;;;;;4830329;29;20205;-93
2021/01/08 08:06:32;;;;;;;5.45;4.70;;;;;;;;;;4829935;29;20209;-93
2021/01/08 08:09:01;;;;;;;4.45;3.80;;;;;;;;;;4785286;29;20206;-95
2021/01/08 08:11:30;;;;;;;3.97;3.60;;;;;;;;;;4829825;29;20220;-94
2021/01/08 08:14:00;;;;;;;4.93;4.43;;;;;;;;;;4830024;29;20233;-93
2021/01/08 08:16:38;;;;;;;4.20;3.80;;;;;;;;;;4829525;29;20523;-94
2021/01/08 08:19:08;;;;;;;4.97;4.20;;;;;;;;;;4829893;29;20202;-93
2021/01/08 08:21:38;;;;;;;4.55;4.15;;;;;;;;;;4829753;29;20268;-94
2021/01/08 08:24:09;;;;;;;4.85;4.35;;;;;;;;;;4830794;29;20210;-94
2021/01/08 08:26:36;;;;;;;5.45;4.93;;;;;;;;;;4830422;29;20588;-94
2021/01/08 08:29:09;;;;;;;5.85;5.25;;;;;;;;;;4831333;29;20277;-95
2021/01/08 08:31:38;;;;;;;6.82;5.47;;;;;;;;;;4831324;29;20230;-94
2021/01/08 08:34:10;;;;;;;5.63;5.13;;;;;;;;;;4832883;29;20271;-93
2021/01/08 08:36:38;;;;;;;4.88;4.40;;;;;;;;;;4834049;29;20210;-94
2021/01/08 08:39:08;;;;;;;5.97;5.38;;;;;;;;;;4834311;29;20206;-95
2021/01/08 08:41:37;;;;;;;7.05;5.82;;;;;;;;;;4834709;29;20205;-94
2021/01/08 08:46:55;;;;;;;6.72;6.03;;;;;;;;;;4838689;29;20202;-94
2021/01/08 09:54:01;;;;;;;2.90;2.60;;;;;;;;;;5812119;24;20184;-96
2021/01/08 09:56:28;;;;;;;2.55;2.30;;;;;;;;;;4840251;29;20652;-95
2021/01/08 10:14:45;;;;;;;2.70;2.50;;;;;;;;;;4788279;30;20227;-94
2021/01/08 10:20:06;;;;;;;2.60;2.40;;;;;;;;;;4753047;30;20216;-94
2021/01/08 10:25:43;;;;;;;3.17;2.90;;;;;;;;;;4737594;30;20206;-94
2021/01/08 10:28:35;;;;;;;2.78;2.58;;;;;;;;;;4733842;30;20213;-94
2021/01/08 10:34:37;;;;;;;2.95;2.38;;;;;;;;;;4732945;30;20221;-95
2021/01/08 10:40:10;;;;;;;2.38;2.17;;;;;;;;;;4696799;30;20280;-95
2021/01/08 10:42:37;;;;;;;2.00;1.90;;;;;;;;;;4727643;30;20603;-94
2021/01/08 10:45:07;;;;;;;2.53;2.33;;;;;;;;;;4752538;30;20223;-95
2021/01/08 10:47:35;;;;;;;2.63;2.42;;;;;;;;;;4804665;29;20250;-95
2021/01/08 10:50:05;;;;;;;2.72;2.53;;;;;;;;;;4813709;29;20513;-94
2021/01/08 10:52:32;;;;;;;2.47;2.22;;;;;;;;;;4811520;29;20610;-93
2021/01/08 10:55:00;;;;;;;2.63;2.42;;;;;;;;;;4815724;29;20245;-92
2021/01/08 10:57:27;;;;;;;2.25;2.05;;;;;;;;;;4831194;29;20214;-93
2021/01/08 10:59:54;;;;;;;2.25;2.03;;;;;;;;;;4830597;29;20297;-94
2021/01/08 11:02:21;;;;;;;2.10;1.90;;;;;;;;;;4830146;29;20577;-94
2021/01/08 11:04:48;;;;;;;2.97;2.30;;;;;;;;;;4830554;29;20202;-93
2021/01/08 11:07:16;;;;;;;2.83;2.50;;;;;;;;;;4830747;29;20280;-93
2021/01/08 11:09:44;;;;;;;4.72;3.33;;;;;;;;;;4830806;29;20206;-92
2021/01/08 11:12:11;;;;;;;2.83;2.53;;;;;;;;;;4830890;29;20297;-93
2021/01/08 11:14:38;;;;;;;3.67;2.65;;;;;;;;;;4830048;29;20505;-92
2021/01/08 11:17:05;;;;;;;3.08;2.85;;;;;;;;;;4829515;29;20210;-92
2021/01/08 11:19:32;;;;;;;2.65;2.42;;;;;;;;;;4829859;29;20206;-93
2021/01/08 11:21:59;;;;;;;3.00;2.55;;;;;;;;;;4830194;29;20274;-92
2021/01/08 11:24:27;;;;;;;2.92;2.60;;;;;;;;;;4829850;29;20190;-93
2021/01/08 11:26:54;;;;;;;3.38;2.35;;;;;;;;;;4830815;29;20221;-92
2021/01/08 11:29:21;;;;;;;3.05;2.75;;;;;;;;;;4830162;29;20269;-92
2021/01/08 11:31:48;;;;;;;2.45;2.25;;;;;;;;;;4830491;29;20214;-92
2021/01/08 11:34:15;;;;;;;2.90;2.58;;;;;;;;;;4830661;29;20205;-92
2021/01/08 11:36:42;;;;;;;2.50;2.30;;;;;;;;;;4830066;29;20572;-92
2021/01/08 11:39:10;;;;;;;2.90;2.67;;;;;;;;;;4830183;29;20256;-91
2021/01/08 11:41:38;;;;;;;3.08;2.78;;;;;;;;;;4830070;29;20198;-93
2021/01/08 11:44:05;;;;;;;2.85;2.53;;;;;;;;;;4829630;29;20198;-91
2021/01/08 11:46:32;;;;;;;3.55;2.85;;;;;;;;;;4829803;29;20580;-92
2021/01/08 11:48:59;;;;;;;2.80;2.55;;;;;;;;;;4829622;29;20564;-93
2021/01/08 11:51:26;;;;;;;2.58;2.38;;;;;;;;;;4830220;29;20233;-92
2021/01/08 11:53:53;;;;;;;2.58;2.38;;;;;;;;;;4829455;29;20197;-92
2021/01/08 11:56:28;;;;;;;2.33;2.13;;;;;;;;;;4829055;29;20249;-91
2021/01/08 11:58:57;;;;;;;2.35;2.15;;;;;;;;;;4830224;29;20209;-93
2021/01/08 12:01:25;;;;;;;3.40;3.10;;;;;;;;;;4830062;29;20205;-92
2021/01/08 12:03:52;;;;;;;3.78;2.42;;;;;;;;;;4829875;29;20220;-91
2021/01/08 12:06:24;;;;;;;2.30;2.05;;;;;;;;;;4829327;29;20194;-91
2021/01/08 12:08:51;;;;;;;3.00;2.60;;;;;;;;;;4829296;29;20190;-94
2021/01/08 12:11:18;;;;;;;2.67;2.47;;;;;;;;;;4829739;29;20232;-92
2021/01/08 12:13:45;;;;;;;3.50;2.67;;;;;;;;;;4829118;29;20277;-93
2021/01/08 12:16:13;;;;;;;2.40;2.20;;;;;;;;;;4828966;29;20285;-91
2021/01/08 12:18:40;;;;;;;3.25;2.95;;;;;;;;;;4829374;29;20201;-91
2021/01/08 12:21:08;;;;;;;2.47;2.28;;;;;;;;;;4829160;29;20226;-92
2021/01/08 12:23:35;;;;;;;2.67;2.30;;;;;;;;;;4829891;29;20302;-92
2021/01/08 12:26:02;;;;;;;3.42;2.72;;;;;;;;;;4828873;29;20251;-94
2021/01/08 12:28:29;;;;;;;3.22;2.85;;;;;;;;;;4831086;29;20194;-93
2021/01/08 12:30:56;;;;;;;3.33;3.03;;;;;;;;;;4832887;29;20281;-93
2021/01/08 12:33:24;;;;;;;4.88;3.08;;;;;;;;;;4832285;29;20246;-92
2021/01/08 12:35:51;;;;;;;3.05;2.75;;;;;;;;;;4832561;29;20233;-92
2021/01/08 12:38:18;;;;;;;2.60;2.40;;;;;;;;;;4833091;29;20206;-93
2021/01/08 12:40:45;;;;;;;3.03;2.78;;;;;;;;;;4832211;29;20550;-92
2021/01/08 12:43:12;;;;;;;3.17;2.90;;;;;;;;;;4832857;29;20202;-92
2021/01/08 12:45:39;;;;;;;3.70;3.35;;;;;;;;;;4831941;29;20446;-94
2021/01/08 12:48:08;;;;;;;2.92;2.72;;;;;;;;;;4832281;29;20198;-93
2021/01/08 12:50:37;;;;;;;4.03;3.22;;;;;;;;;;4832231;29;20249;-91
2021/01/08 12:53:04;;;;;;;3.25;2.95;;;;;;;;;;4832946;29;20541;-92
2021/01/08 12:55:32;;;;;;;3.85;3.45;;;;;;;;;;4831904;29;20522;-92
2021/01/08 12:58:00;;;;;;;3.88;3.45;;;;;;;;;;4831954;29;20254;-92
2021/01/08 13:00:27;;;;;;;2.83;2.60;;;;;;;;;;4833294;29;20212;-92
2021/01/08 13:02:54;;;;;;;3.28;2.97;;;;;;;;;;4841019;29;20220;-92
2021/01/08 13:05:21;;;;;;;3.22;2.50;;;;;;;;;;4837558;29;20254;-92
2021/01/08 13:07:49;;;;;;;2.78;2.40;;;;;;;;;;4832813;29;20206;-92
2021/01/08 13:10:16;;;;;;;2.92;2.72;;;;;;;;;;4832036;29;20228;-93
2021/01/08 13:12:43;;;;;;;3.30;2.28;;;;;;;;;;4831920;29;20202;-92
2021/01/08 13:15:11;;;;;;;4.20;3.35;;;;;;;;;;4831425;29;20555;-92
2021/01/08 13:17:39;;;;;;;2.75;2.55;;;;;;;;;;4831721;29;20553;-92
2021/01/08 13:20:08;;;;;;;3.55;3.00;;;;;;;;;;4831796;29;20221;-91
2021/01/08 13:22:35;;;;;;;2.67;2.47;;;;;;;;;;4832469;29;20210;-93
2021/01/08 13:25:03;;;;;;;2.70;2.50;;;;;;;;;;4833039;29;20221;-92
2021/01/08 13:27:35;;;;;;;4.05;2.88;;;;;;;;;;4832910;29;20559;-91
2021/01/08 13:30:04;;;;;;;3.78;2.80;;;;;;;;;;4833822;29;20288;-92
2021/01/08 13:32:31;;;;;;;3.05;2.80;;;;;;;;;;4832219;29;20216;-93
2021/01/08 13:34:58;;;;;;;3.17;2.88;;;;;;;;;;4832101;29;20569;-93
2021/01/08 13:37:25;;;;;;;3.40;3.10;;;;;;;;;;4831822;29;20474;-92
2021/01/08 13:39:52;;;;;;;2.08;1.88;;;;;;;;;;4831371;29;20229;-92
2021/01/08 13:42:20;;;;;;;3.72;3.17;;;;;;;;;;4832383;29;20190;-93
2021/01/08 13:44:47;;;;;;;3.15;2.85;;;;;;;;;;4831386;29;20190;-93
2021/01/08 13:47:14;;;;;;;3.05;2.75;;;;;;;;;;4831259;29;20194;-92
2021/01/08 13:49:41;;;;;;;3.40;3.10;;;;;;;;;;4831344;29;20604;-91
2021/01/08 13:52:08;;;;;;;3.22;2.92;;;;;;;;;;4831898;29;20520;-92
2021/01/08 13:54:36;;;;;;;3.35;2.75;;;;;;;;;;4831353;29;20311;-92
2021/01/08 13:57:03;;;;;;;2.70;2.50;;;;;;;;;;4831092;29;20584;-91
2021/01/08 13:59:30;;;;;;;3.00;2.63;;;;;;;;;;4831412;29;20202;-91
2021/01/08 14:01:57;;;;;;;3.00;2.80;;;;;;;;;;4830933;29;20458;-91
2021/01/08 14:04:24;;;;;;;3.38;3.08;;;;;;;;;;4831418;29;20483;-91
2021/01/08 14:06:51;;;;;;;3.58;3.17;;;;;;;;;;4831573;29;20262;-90
2021/01/08 14:09:19;;;;;;;4.57;3.13;;;;;;;;;;4831652;29;20502;-90
2021/01/08 14:11:46;;;;;;;3.47;3.17;;;;;;;;;;4830878;29;20213;-91
2021/01/08 14:14:13;;;;;;;3.00;2.70;;;;;;;;;;4831695;29;20486;-92
2021/01/08 14:16:41;;;;;;;3.17;2.88;;;;;;;;;;4831011;29;20317;-92
2021/01/08 14:19:08;;;;;;;3.20;2.90;;;;;;;;;;4830669;29;20198;-91
2021/01/08 14:21:37;;;;;;;3.65;3.20;;;;;;;;;;4830602;29;20248;-91
2021/01/08 14:24:06;;;;;;;3.00;2.80;;;;;;;;;;4830989;29;20205;-91
2021/01/08 14:26:34;;;;;;;3.90;3.53;;;;;;;;;;4831093;29;20262;-92
2021/01/08 14:29:02;;;;;;;4.35;3.70;;;;;;;;;;4830916;29;20282;-90
2021/01/08 14:31:31;;;;;;;4.25;3.30;;;;;;;;;;4830805;29;20202;-92
2021/01/08 14:34:00;;;;;;;3.90;3.20;;;;;;;;;;4831482;29;20210;-91
2021/01/08 14:36:28;;;;;;;4.32;3.92;;;;;;;;;;4830842;29;20290;-91
2021/01/08 14:38:56;;;;;;;4.07;3.33;;;;;;;;;;4831063;29;20233;-92
2021/01/08 14:41:25;;;;;;;3.38;3.08;;;;;;;;;;4831446;29;20613;-91
2021/01/08 14:43:53;;;;;;;3.58;3.17;;;;;;;;;;4831132;29;20205;-92
2021/01/08 14:46:21;;;;;;;5.38;3.50;;;;;;;;;;4830789;29;20212;-91
2021/01/08 14:48:48;;;;;;;5.03;3.78;;;;;;;;;;4831001;29;20473;-91
2021/01/08 14:51:26;;;;;;;6.00;3.67;;;;;;;;;;4829345;29;20301;-91
2021/01/08 14:53:53;;;;;;;4.95;4.38;;;;;;;;;;4830447;29;20235;-93
2021/01/08 14:56:20;;;;;;;4.47;3.67;;;;;;;;;;4829798;29;20238;-91
2021/01/08 14:58:47;;;;;;;5.15;4.65;;;;;;;;;;4829947;29;20469;-92
2021/01/08 15:01:18;;;;;;;5.30;4.28;;;;;;;;;;4830128;29;20195;-92
2021/01/08 15:03:45;;;;;;;5.22;4.30;;;;;;;;;;4830145;29;20198;-91
2021/01/08 15:06:13;;;;;;;4.65;4.25;;;;;;;;;;4830211;29;20213;-92
2021/01/08 15:08:42;;;;;;;5.10;4.38;;;;;;;;;;4830500;29;20194;-93
2021/01/08 15:11:09;;;;;;;4.45;4.03;;;;;;;;;;4830219;29;20213;-92
2021/01/08 15:13:36;;;;;;;5.03;4.07;;;;;;;;;;4830037;29;20592;-92
2021/01/08 15:16:04;;;;;;;6.18;4.80;;;;;;;;;;4830426;29;20244;-92
2021/01/08 15:18:31;;;;;;;5.00;4.50;;;;;;;;;;4830344;29;20202;-91
2021/01/08 15:21:05;;;;;;;4.70;4.30;;;;;;;;;;4829668;29;20233;-91
2021/01/08 15:23:33;;;;;;;5.15;4.47;;;;;;;;;;4829701;29;20190;-91
2021/01/08 15:26:02;;;;;;;6.63;5.45;;;;;;;;;;4829675;29;20186;-93
2021/01/08 15:28:30;;;;;;;6.35;5.03;;;;;;;;;;4830467;29;20202;-91
2021/01/08 15:30:59;;;;;;;5.10;4.43;;;;;;;;;;4830132;29;20210;-91
2021/01/08 15:33:27;;;;;;;5.63;5.07;;;;;;;;;;4829523;29;20575;-91
2021/01/08 15:35:59;;;;;;;5.07;3.95;;;;;;;;;;4829420;29;20186;-93
2021/01/08 15:38:28;;;;;;;5.72;5.22;;;;;;;;;;4830124;29;20471;-91
2021/01/08 15:40:55;;;;;;;4.95;4.55;;;;;;;;;;4830017;29;20206;-92
2021/01/08 15:43:23;;;;;;;6.50;5.90;;;;;;;;;;4830338;29;20333;-91
2021/01/08 15:45:50;;;;;;;5.68;4.95;;;;;;;;;;4830026;29;20599;-92
2021/01/08 15:48:18;;;;;;;7.30;6.60;;;;;;;;;;4829679;29;20198;-91
2021/01/08 15:50:47;;;;;;;6.68;5.97;;;;;;;;;;4829563;29;20218;-92
2021/01/08 15:53:14;;;;;;;5.88;5.38;;;;;;;;;;4829354;29;20202;-93
2021/01/08 15:55:43;;;;;;;6.35;5.28;;;;;;;;;;4829195;29;20237;-92
2021/01/08 15:58:10;;;;;;;7.90;7.10;;;;;;;;;;4829378;29;20658;-91
2021/01/08 16:00:40;;;;;;;6.85;5.95;;;;;;;;;;4829484;29;20200;-92
2021/01/08 16:03:07;;;;;;;6.43;5.70;;;;;;;;;;4831895;29;20267;-93
2021/01/08 16:05:35;;;;;;;7.18;6.45;;;;;;;;;;4833518;29;20217;-93
2021/01/08 16:08:02;;;;;;;6.97;5.80;;;;;;;;;;4833405;29;20205;-91
2021/01/08 16:10:31;;;;;;;6.63;5.55;;;;;;;;;;4832614;29;20200;-93
2021/01/08 16:12:59;;;;;;;7.72;6.05;;;;;;;;;;4833517;29;20541;-92
2021/01/08 16:15:26;;;;;;;8.55;5.88;;;;;;;;;;4833673;29;20228;-92
2021/01/08 16:17:55;;;;;;;7.13;6.05;;;;;;;;;;4832935;29;20226;-94
2021/01/08 16:20:23;;;;;;;7.28;6.20;;;;;;;;;;4832425;29;20592;-92
2021/01/08 16:22:50;;;;;;;6.50;5.78;;;;;;;;;;4833412;29;20209;-92
2021/01/08 16:25:17;;;;;;;8.70;6.60;;;;;;;;;;4833245;29;20198;-92
2021/01/08 16:27:44;;;;;;;7.63;5.95;;;;;;;;;;4833498;29;20274;-93
2021/01/08 16:30:14;;;;;;;9.55;8.45;;;;;;;;;;4832283;29;20190;-92